KBTR/BTR METAR and TAF weather

Enter ICAO airport designator
Station Type Date Time Source
KBTR METAR 2019/06/16 05:53 UTC NOAA

KBTR 160553Z 17008KT 10SM CLR 26/23 A2998 RMK AO2 SLP151 T02560233 10306 20250 403330222 58000


Station Type Date Time Source
KBTR Decoded METAR 2019/06/16 05:53 UTC NOAA

BATON ROUGE METRO RYAN FIELD, LA, United States (KBTR) 30-32N 91-09W 21M
Jun 16, 2019 - 01:53 AM EDT / 2019.06.16 0553 UTC
Wind: from the S (170 degrees) at 9 MPH (8 KT):0
Visibility: 10 mile(s):0
Sky conditions: clear
Temperature: 78.1 F (25.6 C)
Dew Point: 73.9 F (23.3 C)
Relative Humidity: 87%
Pressure (altimeter): 29.98 in. Hg (1015 hPa)
Pressure tendency: 0.00 inches (0.0 hPa) lower than three hours ago
ob: KBTR 160553Z 17008KT 10SM CLR 26/23 A2998 RMK AO2 SLP151 T02560233 10306 20250 403330222 58000
cycle: 6

Station Type Date Time Source
KBTR TAF 2019/06/16 06:48 UTC NOAA

TAF KBTR 160545Z 1606/1706 22011KT P6SM VCSH FEW045 FEW110
FM161100 18005KT P6SM BKN035
FM161800 19005KT P6SM BKN250 PROB30 1619/1623 P6SM TSRA BKN050CB
FM170000 15006KT P6SM BKN250

Example: see airport list